Time,TemperatureF,DewpointF,PressureIn,WindDirection,WindDirectionDegrees,WindSpeedMPH,WindSpeedGustMPH,Humidity,HourlyPrecipIn,Conditions,Clouds,dailyrainin,SoftwareType,DateUTC
2016-07-27 00:03:00,63.0,49.0,-100.00,South,172,4.0,10.0,60,-99.99,,,-99.99,,2016-07-27 08:03:00,
2016-07-27 00:13:00,63.0,49.0,-100.00,South,172,4.0,10.0,60,-99.99,,,-99.99,,2016-07-27 08:13:00,
2016-07-27 00:21:00,59.0,50.0,-100.00,South,184,4.0,6.0,71,-99.99,,,-99.99,,2016-07-27 08:21:00,
2016-07-27 00:44:00,59.0,50.0,-100.00,South,184,4.0,6.0,71,-99.99,,,-99.99,,2016-07-27 08:44:00,
2016-07-27 00:55:00,59.0,50.0,-100.00,South,184,4.0,6.0,71,-99.99,,,-99.99,,2016-07-27 08:55:00,
2016-07-27 01:03:00,59.0,50.0,-100.00,South,184,4.0,6.0,71,-99.99,,,-99.99,,2016-07-27 09:03:00,
2016-07-27 01:12:00,59.0,50.0,-100.00,South,184,4.0,6.0,71,-99.99,,,-99.99,,2016-07-27 09:12:00,
2016-07-27 01:21:00,56.0,51.0,-100.00,SSE,147,1.0,-999.0,84,-99.99,,,-99.99,,2016-07-27 09:21:00,
2016-07-27 02:01:00,56.0,51.0,-100.00,SSE,147,1.0,-999.0,84,-99.99,,,-99.99,,2016-07-27 10:01:00,
2016-07-27 02:10:00,56.0,51.0,-100.00,SSE,147,-999.9,-999.0,84,-99.99,,,-99.99,,2016-07-27 10:10:00,
2016-07-27 02:20:00,56.0,51.0,-100.00,SSE,147,1.0,-999.0,84,-99.99,,,-99.99,,2016-07-27 10:20:00,
2016-07-27 02:21:00,55.0,51.0,-100.00,SSE,152,3.0,-999.0,86,-99.99,,,-99.99,,2016-07-27 10:21:00,
2016-07-27 02:53:00,55.0,51.0,-100.00,SSE,152,3.0,-999.0,86,-99.99,,,-99.99,,2016-07-27 10:53:00,
2016-07-27 03:03:00,55.0,51.0,-100.00,SSE,152,3.0,-999.0,86,-99.99,,,-99.99,,2016-07-27 11:03:00,
2016-07-27 03:11:00,55.0,51.0,-100.00,SSE,152,-999.9,-999.0,86,-99.99,,,-99.99,,2016-07-27 11:11:00,
2016-07-27 03:20:00,55.0,51.0,-100.00,SSE,152,3.0,-999.0,86,-99.99,,,-99.99,,2016-07-27 11:20:00,
2016-07-27 03:21:00,53.0,50.0,-100.00,SSE,147,3.0,4.0,89,-99.99,,,-99.99,,2016-07-27 11:21:00,
2016-07-27 03:49:00,53.0,50.0,-100.00,SSE,147,3.0,-999.0,89,-99.99,,,-99.99,,2016-07-27 11:49:00,
2016-07-27 04:11:00,53.0,50.0,-100.00,SSE,147,3.0,-999.0,89,-99.99,,,-99.99,,2016-07-27 12:11:00,
2016-07-27 04:21:00,51.0,49.0,-100.00,SSW,193,4.0,5.0,92,-99.99,,,-99.99,,2016-07-27 12:21:00,
2016-07-27 04:51:00,51.0,49.0,-100.00,SSW,193,4.0,-999.0,92,-99.99,,,-99.99,,2016-07-27 12:51:00,
2016-07-27 05:02:00,51.0,49.0,-100.00,SSW,193,4.0,5.0,92,-99.99,,,-99.99,,2016-07-27 13:02:00,
2016-07-27 05:13:00,51.0,49.0,-100.00,SSW,193,4.0,5.0,92,-99.99,,,-99.99,,2016-07-27 13:13:00,
2016-07-27 05:21:00,50.0,48.0,-100.00,SSW,209,3.0,-999.0,92,-99.99,,,-99.99,,2016-07-27 13:21:00,
2016-07-27 05:49:00,50.0,48.0,-100.00,SSW,209,3.0,7.0,92,-99.99,,,-99.99,,2016-07-27 13:49:00,
2016-07-27 05:55:00,50.0,48.0,-100.00,SSW,209,3.0,-999.0,92,-99.99,,,-99.99,,2016-07-27 13:55:00,
2016-07-27 06:04:00,50.0,48.0,-100.00,SSW,209,3.0,7.0,92,-99.99,,,-99.99,,2016-07-27 14:04:00,
2016-07-27 06:14:00,50.0,48.0,-100.00,SSW,209,3.0,7.0,92,-99.99,,,-99.99,,2016-07-27 14:14:00,
2016-07-27 06:21:00,51.0,49.0,-100.00,SW,217,4.0,7.0,92,-99.99,,,-99.99,,2016-07-27 14:21:00,
2016-07-27 06:45:00,51.0,49.0,-100.00,SW,217,4.0,7.0,92,-99.99,,,-99.99,,2016-07-27 14:45:00,
2016-07-27 06:54:00,51.0,49.0,-100.00,SW,217,4.0,7.0,92,-99.99,,,-99.99,,2016-07-27 14:54:00,
2016-07-27 07:03:00,51.0,49.0,-100.00,SW,217,4.0,7.0,92,-99.99,,,-99.99,,2016-07-27 15:03:00,
2016-07-27 07:13:00,51.0,49.0,-100.00,SW,217,4.0,7.0,92,-99.99,,,-99.99,,2016-07-27 15:13:00,
2016-07-27 07:21:00,57.0,52.0,-100.00,SSW,211,2.0,-999.0,83,-99.99,,,-99.99,,2016-07-27 15:21:00,
2016-07-27 07:51:00,57.0,52.0,-100.00,SSW,211,2.0,-999.0,83,-99.99,,,-99.99,,2016-07-27 15:51:00,
2016-07-27 08:03:00,57.0,52.0,-100.00,SSW,211,2.0,-999.0,83,-99.99,,,-99.99,,2016-07-27 16:03:00,
2016-07-27 08:10:00,57.0,52.0,-100.00,SSW,211,2.0,-999.0,83,-99.99,,,-99.99,,2016-07-27 16:10:00,
2016-07-27 08:21:00,61.0,53.0,-100.00,South,191,6.0,-999.0,74,-99.99,,,-99.99,,2016-07-27 16:21:00,
2016-07-27 09:13:00,61.0,53.0,-100.00,South,191,6.0,-999.0,74,-99.99,,,-99.99,,2016-07-27 17:13:00,
2016-07-27 09:21:00,64.0,52.0,-100.00,South,177,6.0,-999.0,64,-99.99,,,-99.99,,2016-07-27 17:21:00,
2016-07-27 09:53:00,64.0,52.0,-100.00,South,177,-999.9,-999.0,64,-99.99,,,-99.99,,2016-07-27 17:53:00,
2016-07-27 10:05:00,64.0,52.0,-100.00,South,177,6.0,-999.0,64,-99.99,,,-99.99,,2016-07-27 18:05:00,
2016-07-27 10:11:00,64.0,52.0,-100.00,South,177,6.0,-999.0,64,-99.99,,,-99.99,,2016-07-27 18:11:00,
2016-07-27 10:21:00,66.0,52.0,-100.00,South,190,6.0,12.0,60,-99.99,,,-99.99,,2016-07-27 18:21:00,
2016-07-27 10:47:00,66.0,52.0,-100.00,South,190,6.0,12.0,60,-99.99,,,-99.99,,2016-07-27 18:47:00,
2016-07-27 10:56:00,66.0,52.0,-100.00,South,190,6.0,12.0,60,-99.99,,,-99.99,,2016-07-27 18:56:00,
2016-07-27 11:07:00,66.0,52.0,-100.00,South,190,6.0,12.0,60,-99.99,,,-99.99,,2016-07-27 19:07:00,
2016-07-27 11:14:00,66.0,52.0,-100.00,South,190,6.0,12.0,60,-99.99,,,-99.99,,2016-07-27 19:14:00,
2016-07-27 11:21:00,68.0,50.0,-100.00,South,173,9.0,14.0,53,-99.99,,,-99.99,,2016-07-27 19:21:00,
2016-07-27 11:47:00,68.0,50.0,-100.00,South,173,9.0,14.0,53,-99.99,,,-99.99,,2016-07-27 19:47:00,
2016-07-27 11:57:00,68.0,50.0,-100.00,South,173,9.0,14.0,53,-99.99,,,-99.99,,2016-07-27 19:57:00,
2016-07-27 12:04:00,68.0,50.0,-100.00,South,173,9.0,14.0,53,-99.99,,,-99.99,,2016-07-27 20:04:00,
2016-07-27 12:12:00,68.0,50.0,-100.00,South,173,9.0,14.0,53,-99.99,,,-99.99,,2016-07-27 20:12:00,
2016-07-27 12:21:00,70.0,50.0,-100.00,SSW,192,9.0,17.0,50,-99.99,,,-99.99,,2016-07-27 20:21:00,
2016-07-27 12:45:00,70.0,50.0,-100.00,SSW,192,9.0,17.0,50,-99.99,,,-99.99,,2016-07-27 20:45:00,
2016-07-27 12:54:00,70.0,50.0,-100.00,SSW,192,9.0,17.0,50,-99.99,,,-99.99,,2016-07-27 20:54:00,
2016-07-27 13:04:00,70.0,50.0,-100.00,SSW,192,9.0,17.0,50,-99.99,,,-99.99,,2016-07-27 21:04:00,
2016-07-27 13:13:00,70.0,50.0,-100.00,SSW,192,9.0,17.0,50,-99.99,,,-99.99,,2016-07-27 21:13:00,
2016-07-27 13:21:00,73.0,50.0,-100.00,SSW,195,8.0,-999.0,44,-99.99,,,-99.99,,2016-07-27 21:21:00,
2016-07-27 14:03:00,73.0,50.0,-100.00,SSW,195,8.0,-999.0,44,-99.99,,,-99.99,,2016-07-27 22:03:00,
2016-07-27 14:10:00,73.0,50.0,-100.00,SSW,195,-999.9,-999.0,44,-99.99,,,-99.99,,2016-07-27 22:10:00,
2016-07-27 14:20:00,73.0,50.0,-100.00,SSW,195,8.0,-999.0,44,-99.99,,,-99.99,,2016-07-27 22:20:00,
2016-07-27 14:21:00,73.0,49.0,-100.00,South,175,9.0,-999.0,42,-99.99,,,-99.99,,2016-07-27 22:21:00,
2016-07-27 15:11:00,73.0,49.0,-100.00,South,175,9.0,-999.0,42,-99.99,,,-99.99,,2016-07-27 23:11:00,
2016-07-27 15:20:00,73.0,49.0,-100.00,South,175,9.0,-999.0,42,-99.99,,,-99.99,,2016-07-27 23:20:00,
2016-07-27 15:21:00,73.0,49.0,-100.00,South,187,8.0,-999.0,42,-99.99,,,-99.99,,2016-07-27 23:21:00,
2016-07-27 15:53:00,73.0,49.0,-100.00,South,187,8.0,-999.0,42,-99.99,,,-99.99,,2016-07-27 23:53:00,
2016-07-27 15:59:00,73.0,49.0,-100.00,South,187,8.0,15.0,42,-99.99,,,-99.99,,2016-07-27 23:59:00,
2016-07-27 16:06:00,73.0,49.0,-100.00,South,187,8.0,15.0,42,-99.99,,,-99.99,,2016-07-28 00:06:00,
2016-07-27 16:13:00,73.0,49.0,-100.00,South,187,8.0,15.0,42,-99.99,,,-99.99,,2016-07-28 00:13:00,
2016-07-27 16:21:00,72.0,49.0,-100.00,SSW,199,8.0,17.0,45,-99.99,,,-99.99,,2016-07-28 00:21:00,
2016-07-27 17:09:00,72.0,49.0,-100.00,SSW,199,8.0,-999.0,45,-99.99,,,-99.99,,2016-07-28 01:09:00,
2016-07-27 17:21:00,74.0,48.0,-100.00,SSW,200,9.0,17.0,40,-99.99,,,-99.99,,2016-07-28 01:21:00,
2016-07-27 17:54:00,74.0,48.0,-100.00,SSW,200,9.0,17.0,40,-99.99,,,-99.99,,2016-07-28 01:54:00,
2016-07-27 18:12:00,74.0,48.0,-100.00,SSW,200,9.0,17.0,40,-99.99,,,-99.99,,2016-07-28 02:12:00,
2016-07-27 18:21:00,73.0,49.0,-100.00,SSW,204,9.0,19.0,43,-99.99,,,-99.99,,2016-07-28 02:21:00,
2016-07-27 18:44:00,73.0,49.0,-100.00,SSW,204,9.0,19.0,43,-99.99,,,-99.99,,2016-07-28 02:44:00,
2016-07-27 18:54:00,73.0,49.0,-100.00,SSW,204,9.0,19.0,43,-99.99,,,-99.99,,2016-07-28 02:54:00,
2016-07-27 19:03:00,73.0,49.0,-100.00,SSW,204,9.0,19.0,43,-99.99,,,-99.99,,2016-07-28 03:03:00,
2016-07-27 19:13:00,73.0,49.0,-100.00,SSW,204,9.0,19.0,43,-99.99,,,-99.99,,2016-07-28 03:13:00,
2016-07-27 19:21:00,75.0,48.0,-100.00,SSW,207,-999.9,-999.0,39,-99.99,,,-99.99,,2016-07-28 03:21:00,
2016-07-27 19:53:00,75.0,48.0,-100.00,SSW,207,9.0,-999.0,39,-99.99,,,-99.99,,2016-07-28 03:53:00,
2016-07-27 20:03:00,75.0,48.0,-100.00,SSW,207,9.0,-999.0,39,-99.99,,,-99.99,,2016-07-28 04:03:00,
2016-07-27 20:10:00,75.0,48.0,-100.00,SSW,207,9.0,-999.0,39,-99.99,,,-99.99,,2016-07-28 04:10:00,
2016-07-27 20:20:00,75.0,48.0,-100.00,SSW,207,9.0,-999.0,39,-99.99,,,-99.99,,2016-07-28 04:20:00,
2016-07-27 20:21:00,69.0,49.0,-100.00,SW,225,7.0,-999.0,49,-99.99,,,-99.99,,2016-07-28 04:21:00,
2016-07-27 20:54:00,69.0,49.0,-100.00,SW,225,7.0,-999.0,49,-99.99,,,-99.99,,2016-07-28 04:54:00,
2016-07-27 21:20:00,69.0,49.0,-100.00,SW,225,7.0,-999.0,49,-99.99,,,-99.99,,2016-07-28 05:20:00,